Terminal Aerodrome Forecast
Issued by NWS Sterling, VA

Current Version | Previous Version | Graphics & Text | Print | Product List | Glossary On
Versions: 1 2 3 4 5 6 7 8 9 10 11 12 13 14 15 16 17 18 19 20 21 22 23 24 25 26
000
FTUS41 KLWX 031511 AAA
TAFIAD
TAF AMD
KIAD 031511Z 0315/0418 32007KT P6SM SCT012 OVC060
     FM031900 01005KT P6SM -SHRA OVC025
     FM040000 05004KT P6SM BKN020
     FM040900 VRB03KT 3SM BR OVC003
     FM041500 VRB04KT P6SM OVC015=

USA.gov is the U.S. government's official web portal to all federal, state and local government web resources and services.